Time;durP1;ratioP1;P1;durP2;ratioP2;P2;SDS_P1;SDS_P2;PMS_P1;PMS_P2;Temp;Humidity;BMP_temperature;BMP_pressure;BME280_temperature;BME280_humidity;BME280_pressure;Samples;Min_cycle;Max_cycle;Signal;HPM_P1;HPM_P2
2023/12/25 00:00:32;;;;;;;5.82;1.55;;;;;;;13.03;93.15;99278.50;7393837;19;20378;-65
2023/12/25 00:02:59;;;;;;;4.90;1.35;;;;;;;12.96;92.96;99264.47;7392670;19;20360;-66
2023/12/25 00:05:26;;;;;;;5.13;1.48;;;;;;;12.95;93.72;99238.88;7395049;19;20340;-66
2023/12/25 00:07:52;;;;;;;4.10;1.30;;;;;;;12.94;93.86;99231.94;7395544;19;20705;-66
2023/12/25 00:10:19;;;;;;;3.37;0.97;;;;;;;12.93;94.08;99243.63;7393541;19;20873;-65
2023/12/25 00:12:46;;;;;;;4.32;1.10;;;;;;;12.83;95.05;99257.47;7395518;19;20360;-66
2023/12/25 00:15:13;;;;;;;5.87;1.13;;;;;;;12.80;95.74;99241.16;7396636;19;20442;-66
2023/12/25 00:17:39;;;;;;;4.20;1.37;;;;;;;12.71;96.46;99256.63;7395200;19;20337;-66
2023/12/25 00:20:07;;;;;;;5.38;1.40;;;;;;;12.70;96.42;99244.34;7392526;19;20361;-66
2023/12/25 00:22:34;;;;;;;4.23;1.10;;;;;;;12.65;96.63;99236.22;7394338;19;20360;-66
2023/12/25 00:25:00;;;;;;;6.50;1.60;;;;;;;12.64;96.62;99251.38;7395044;19;20679;-66
2023/12/25 00:27:27;;;;;;;5.35;1.83;;;;;;;12.70;96.64;99232.88;7393937;19;20382;-65
2023/12/25 00:29:53;;;;;;;4.85;1.20;;;;;;;12.68;96.07;99224.31;7392142;19;20365;-66
2023/12/25 00:32:20;;;;;;;4.47;1.23;;;;;;;12.70;95.97;99232.88;7393568;19;20414;-66
2023/12/25 00:34:47;;;;;;;6.18;1.50;;;;;;;12.69;95.75;99228.59;7394854;19;20387;-66
2023/12/25 00:37:14;;;;;;;5.13;1.60;;;;;;;12.74;95.16;99234.06;7393924;19;20380;-65
2023/12/25 00:39:41;;;;;;;6.75;1.67;;;;;;;12.73;94.36;99240.41;7391736;19;20876;-66
2023/12/25 00:42:08;;;;;;;3.90;1.20;;;;;;;12.72;93.56;99238.78;7394436;19;20381;-66
2023/12/25 00:44:34;;;;;;;5.20;1.33;;;;;;;12.81;93.40;99237.44;7393582;19;20369;-66
2023/12/25 00:47:01;;;;;;;4.67;1.60;;;;;;;12.81;93.32;99250.75;7393819;19;21151;-65
2023/12/25 00:49:28;;;;;;;6.87;1.60;;;;;;;12.86;93.03;99224.28;7393904;19;20720;-65
2023/12/25 00:51:55;;;;;;;4.35;1.23;;;;;;;12.88;94.12;99248.00;7394139;19;20371;-66
2023/12/25 00:54:23;;;;;;;5.88;1.30;;;;;;;12.84;95.32;99245.78;7392206;19;20460;-67
2023/12/25 00:56:51;;;;;;;3.85;1.00;;;;;;;12.69;97.05;99253.38;7389216;19;20903;-68
2023/12/25 00:59:18;;;;;;;5.53;1.63;;;;;;;12.52;98.17;99244.38;7393944;19;20364;-67
2023/12/25 01:01:44;;;;;;;3.50;1.10;;;;;;;12.32;100.00;99240.06;7392724;19;20357;-69
2023/12/25 01:04:11;;;;;;;6.65;1.20;;;;;;;12.07;100.00;99258.78;7390854;19;20361;-69
2023/12/25 01:06:38;;;;;;;4.82;1.52;;;;;;;11.96;100.00;99246.19;7393771;19;20868;-69
2023/12/25 01:09:05;;;;;;;4.80;1.50;;;;;;;11.83;100.00;99250.56;7391628;19;20356;-69
2023/12/25 01:11:32;;;;;;;4.13;1.30;;;;;;;11.80;100.00;99247.53;7393461;19;20385;-70
2023/12/25 01:13:58;;;;;;;5.35;1.40;;;;;;;11.76;100.00;99227.75;7392256;19;20348;-70
2023/12/25 01:16:26;;;;;;;5.05;1.50;;;;;;;11.75;100.00;99221.63;7392041;19;20742;-70
2023/12/25 01:18:52;;;;;;;4.95;1.30;;;;;;;11.71;100.00;99239.03;7391070;19;20393;-71
2023/12/25 01:21:19;;;;;;;6.15;1.48;;;;;;;11.74;100.00;99220.00;7392130;19;20691;-70
2023/12/25 01:23:46;;;;;;;4.88;1.30;;;;;;;11.82;100.00;99210.94;7392851;19;20693;-70
2023/12/25 01:26:13;;;;;;;4.35;1.30;;;;;;;11.78;100.00;99242.44;7392364;19;20782;-69
2023/12/25 01:28:40;;;;;;;5.03;1.30;;;;;;;11.79;100.00;99225.47;7392639;19;20872;-69
2023/12/25 01:31:07;;;;;;;5.93;1.42;;;;;;;11.82;100.00;99229.53;7392529;19;20717;-69
2023/12/25 01:33:33;;;;;;;3.05;1.05;;;;;;;11.83;98.61;99242.59;7392119;19;20693;-69
2023/12/25 01:36:00;;;;;;;6.45;1.60;;;;;;;11.92;98.80;99229.06;7391003;19;20446;-69
2023/12/25 01:38:27;;;;;;;4.10;1.40;;;;;;;11.96;97.61;99225.72;7391022;19;20353;-68
2023/12/25 01:40:54;;;;;;;5.93;1.42;;;;;;;12.01;96.76;99233.06;7391892;19;20879;-69
2023/12/25 01:43:28;;;;;;;2.78;1.00;;;;;;;12.05;96.62;99223.63;7392529;19;20856;-69
2023/12/25 01:45:55;;;;;;;5.40;1.40;;;;;;;12.05;96.14;99234.25;7392206;19;20404;-69
2023/12/25 01:48:24;;;;;;;4.70;1.10;;;;;;;12.03;95.29;99234.47;7389569;19;20431;-68
2023/12/25 01:50:53;;;;;;;4.05;0.98;;;;;;;12.08;93.84;99233.81;7391301;19;21241;-69
2023/12/25 01:53:21;;;;;;;2.93;1.00;;;;;;;12.21;92.97;99270.06;7393065;19;20435;-69
2023/12/25 01:55:49;;;;;;;3.70;1.23;;;;;;;12.27;93.63;99225.84;7390452;19;20738;-69
2023/12/25 01:58:16;;;;;;;2.95;1.00;;;;;;;12.23;92.32;99239.56;7389126;19;20377;-69
2023/12/25 02:00:43;;;;;;;4.03;1.10;;;;;;;12.29;92.44;99227.25;7389173;19;20360;-68
2023/12/25 02:03:10;;;;;;;4.35;1.08;;;;;;;12.32;91.80;99221.47;7389637;19;20379;-69
2023/12/25 02:05:38;;;;;;;4.50;1.17;;;;;;;12.37;91.92;99220.81;7390395;19;20336;-68
2023/12/25 02:08:06;;;;;;;3.30;0.90;;;;;;;12.37;91.25;99247.41;7390727;19;20373;-68
2023/12/25 02:10:33;;;;;;;5.88;1.30;;;;;;;12.49;91.08;99244.81;7389840;19;20385;-68
2023/12/25 02:13:02;;;;;;;3.03;1.05;;;;;;;12.56;90.35;99246.34;7389243;19;20729;-68
2023/12/25 02:15:28;;;;;;;4.18;1.20;;;;;;;12.61;90.40;99259.78;7391710;19;20356;-68
2023/12/25 02:17:55;;;;;;;3.13;1.00;;;;;;;12.62;89.74;99261.44;7391014;19;20339;-68
2023/12/25 02:20:23;;;;;;;3.33;1.17;;;;;;;12.67;89.70;99259.94;7390272;19;20470;-69
2023/12/25 02:22:51;;;;;;;4.45;1.40;;;;;;;12.69;89.38;99297.75;7389453;19;20368;-68
2023/12/25 02:25:32;;;;;;;2.90;1.02;;;;;;;12.70;88.87;99259.50;7390427;19;20338;-68
2023/12/25 02:28:00;;;;;;;4.45;1.10;;;;;;;12.72;88.00;99252.91;7390937;19;20360;-68
2023/12/25 02:30:29;;;;;;;4.32;1.00;;;;;;;12.76;87.92;99282.53;7387702;19;20359;-68
2023/12/25 02:32:56;;;;;;;4.05;1.00;;;;;;;12.77;88.55;99257.53;7389481;19;20677;-67
2023/12/25 02:35:23;;;;;;;4.05;1.00;;;;;;;12.75;87.97;99292.38;7389386;19;20440;-67
2023/12/25 02:37:49;;;;;;;6.97;1.23;;;;;;;12.80;87.83;99270.41;7390596;19;20412;-67
2023/12/25 02:40:17;;;;;;;4.75;1.10;;;;;;;12.80;88.01;99259.78;7389923;19;20674;-67
2023/12/25 02:42:43;;;;;;;3.60;1.15;;;;;;;12.80;87.46;99289.84;7387145;19;20332;-66
2023/12/25 02:45:10;;;;;;;3.05;0.80;;;;;;;12.80;88.01;99275.75;7390974;19;20356;-66
2023/12/25 02:47:37;;;;;;;3.58;0.90;;;;;;;12.81;87.93;99264.03;7389442;19;20372;-67
2023/12/25 02:50:04;;;;;;;4.20;1.03;;;;;;;12.84;88.16;99298.22;7398016;19;20425;-67
2023/12/25 02:52:30;;;;;;;3.58;0.93;;;;;;;12.80;87.83;99267.75;7397387;19;20360;-66
2023/12/25 02:54:57;;;;;;;4.78;1.30;;;;;;;12.79;87.85;99277.59;7397820;19;20368;-66
2023/12/25 02:57:24;;;;;;;3.78;0.80;;;;;;;12.82;87.52;99284.31;7395751;19;20500;-66
2023/12/25 02:59:50;;;;;;;3.35;1.10;;;;;;;12.79;87.29;99309.53;7397002;19;20363;-66
2023/12/25 03:02:17;;;;;;;5.35;1.20;;;;;;;12.77;87.39;99308.94;7392286;19;20383;-66
2023/12/25 03:04:44;;;;;;;4.63;1.20;;;;;;;12.70;87.58;99305.53;7396793;19;20351;-66
2023/12/25 03:07:11;;;;;;;3.70;1.13;;;;;;;12.69;87.60;99311.06;7396058;19;20384;-66
2023/12/25 03:09:38;;;;;;;4.13;0.70;;;;;;;12.68;87.44;99310.25;7397941;19;20333;-66
2023/12/25 03:12:05;;;;;;;4.28;1.27;;;;;;;12.71;87.44;99301.84;7397662;19;20336;-65
2023/12/25 03:14:32;;;;;;;3.50;0.98;;;;;;;12.70;87.30;99347.28;7394192;19;20364;-66
2023/12/25 03:16:58;;;;;;;3.97;1.00;;;;;;;12.68;87.00;99309.44;7395492;19;20341;-66
2023/12/25 03:19:25;;;;;;;4.68;0.98;;;;;;;12.71;86.96;99316.97;7393383;19;20381;-66
2023/12/25 03:21:52;;;;;;;3.67;0.97;;;;;;;12.73;86.94;99310.41;7395081;19;20531;-66
2023/12/25 03:24:19;;;;;;;4.83;1.27;;;;;;;12.68;86.32;99328.06;7396354;19;20336;-65
2023/12/25 03:26:47;;;;;;;4.70;1.00;;;;;;;12.68;86.01;99314.78;7394148;19;20361;-65
2023/12/25 03:29:13;;;;;;;3.58;1.00;;;;;;;12.72;85.96;99306.13;7396330;19;20425;-65
2023/12/25 03:31:40;;;;;;;4.78;1.13;;;;;;;12.68;86.18;99317.44;7397622;19;21026;-66
2023/12/25 03:34:06;;;;;;;4.13;1.00;;;;;;;12.71;85.78;99311.66;7395717;19;20714;-66
2023/12/25 03:36:34;;;;;;;4.32;0.93;;;;;;;12.68;84.78;99330.72;7395287;19;20344;-66
2023/12/25 03:39:01;;;;;;;3.22;0.80;;;;;;;12.71;84.78;99376.34;7393843;19;20416;-66
2023/12/25 03:41:27;;;;;;;2.80;0.90;;;;;;;12.67;84.14;99347.75;7393712;19;20353;-65
2023/12/25 03:43:54;;;;;;;4.47;1.20;;;;;;;12.72;83.43;99318.63;7396160;19;20348;-65
2023/12/25 03:46:21;;;;;;;3.90;1.17;;;;;;;12.69;83.41;99324.38;7395129;19;20678;-66
2023/12/25 03:48:48;;;;;;;3.70;0.80;;;;;;;12.70;83.31;99348.09;7393923;19;20376;-65
2023/12/25 03:51:15;;;;;;;4.57;1.20;;;;;;;12.73;83.94;99330.88;7396944;19;20474;-66
2023/12/25 03:53:42;;;;;;;3.83;0.90;;;;;;;12.74;83.96;99340.50;7396353;19;20684;-65
2023/12/25 03:56:08;;;;;;;3.42;0.90;;;;;;;12.72;84.39;99342.56;7393498;19;20451;-65
2023/12/25 03:58:36;;;;;;;4.47;1.20;;;;;;;12.74;84.72;99335.16;7392530;19;20375;-65
2023/12/25 04:01:02;;;;;;;3.17;0.90;;;;;;;12.70;84.62;99341.97;7392604;19;20472;-65
2023/12/25 04:03:29;;;;;;;4.45;0.90;;;;;;;12.67;84.52;99337.91;7393646;19;20917;-65
2023/12/25 04:05:56;;;;;;;5.88;1.15;;;;;;;12.68;84.63;99336.06;7394946;19;20428;-65
2023/12/25 04:08:23;;;;;;;3.03;0.90;;;;;;;12.63;84.07;99353.50;7394032;19;20393;-65
2023/12/25 04:10:50;;;;;;;3.75;0.80;;;;;;;12.60;83.83;99361.94;7393399;19;20325;-65
2023/12/25 04:13:17;;;;;;;3.28;0.88;;;;;;;12.59;82.02;99347.00;7391688;19;20751;-65
2023/12/25 04:15:45;;;;;;;4.10;1.20;;;;;;;12.61;81.66;99360.88;7392931;19;20348;-65
2023/12/25 04:18:12;;;;;;;2.92;1.00;;;;;;;12.60;81.17;99369.91;7393855;19;20875;-65
2023/12/25 04:20:39;;;;;;;2.65;0.85;;;;;;;12.58;81.08;99363.16;7392587;19;20896;-65
2023/12/25 04:23:06;;;;;;;2.58;0.90;;;;;;;12.56;80.54;99355.44;7395062;19;20388;-65
2023/12/25 04:25:33;;;;;;;2.92;0.90;;;;;;;12.55;80.60;99369.75;7393848;19;20337;-65
2023/12/25 04:27:59;;;;;;;4.90;1.15;;;;;;;12.47;80.23;99401.13;7393545;19;20347;-65
2023/12/25 04:30:26;;;;;;;3.00;0.85;;;;;;;12.49;80.31;99362.63;7391244;19;20356;-65
2023/12/25 04:32:53;;;;;;;2.78;0.90;;;;;;;12.48;80.19;99370.88;7394123;19;20361;-65
2023/12/25 04:35:20;;;;;;;2.67;0.70;;;;;;;12.49;80.40;99367.16;7393536;19;20353;-64
2023/12/25 04:37:47;;;;;;;2.55;0.70;;;;;;;12.43;80.14;99395.44;7392186;19;20375;-66
2023/12/25 04:40:15;;;;;;;5.05;1.10;;;;;;;12.44;80.20;99387.25;7392544;19;20369;-64
2023/12/25 04:42:41;;;;;;;3.20;0.90;;;;;;;12.40;80.11;99393.22;7392132;19;20372;-65
2023/12/25 04:45:08;;;;;;;4.38;0.80;;;;;;;12.45;80.15;99377.41;7392413;19;20475;-64
2023/12/25 04:47:35;;;;;;;3.40;0.80;;;;;;;12.41;80.11;99394.84;7392340;19;20431;-64
2023/12/25 04:50:03;;;;;;;4.63;1.00;;;;;;;12.47;80.14;99382.50;7391085;19;20368;-64
2023/12/25 04:52:30;;;;;;;3.72;0.93;;;;;;;12.51;80.21;99381.06;7394084;19;20360;-65
2023/12/25 04:54:57;;;;;;;3.97;0.93;;;;;;;12.51;80.25;99391.69;7390578;19;20894;-63
2023/12/25 04:57:23;;;;;;;4.05;0.90;;;;;;;12.54;80.28;99386.75;7391634;19;20393;-64
2023/12/25 04:59:50;;;;;;;4.28;1.10;;;;;;;12.51;80.66;99400.47;7391094;19;20372;-64
2023/12/25 05:02:18;;;;;;;4.70;1.23;;;;;;;12.55;80.89;99379.56;7391682;19;20364;-64
2023/12/25 05:04:45;;;;;;;4.10;1.20;;;;;;;12.52;80.66;99396.00;7391007;19;20363;-64
2023/12/25 05:07:12;;;;;;;3.55;1.00;;;;;;;12.52;82.32;99391.47;7393010;19;20352;-64
2023/12/25 05:09:38;;;;;;;2.40;0.80;;;;;;;12.44;83.25;99402.41;7391459;19;20364;-64
2023/12/25 05:12:08;;;;;;;5.57;1.35;;;;;;;12.32;85.02;99409.44;7390150;19;20357;-64
2023/12/25 05:14:34;;;;;;;4.67;1.00;;;;;;;12.19;86.55;99400.53;7392068;19;20352;-65
2023/12/25 05:17:01;;;;;;;4.85;1.30;;;;;;;12.05;87.19;99436.25;7391159;19;21208;-65
2023/12/25 05:19:28;;;;;;;3.92;1.10;;;;;;;11.95;89.45;99425.28;7392631;19;20371;-65
2023/12/25 05:21:54;;;;;;;4.88;1.10;;;;;;;11.86;90.02;99426.53;7392267;19;20364;-64
2023/12/25 05:24:21;;;;;;;5.47;1.60;;;;;;;11.73;91.56;99409.66;7392143;19;20388;-65
2023/12/25 05:26:49;;;;;;;5.53;1.00;;;;;;;11.63;92.61;99414.63;7391054;19;20363;-65
2023/12/25 05:29:15;;;;;;;4.82;1.35;;;;;;;11.54;93.22;99414.06;7390187;19;20369;-65
2023/12/25 05:31:42;;;;;;;3.88;1.17;;;;;;;11.49;93.37;99421.03;7393214;19;20349;-65
2023/12/25 05:34:09;;;;;;;6.03;1.70;;;;;;;11.43;93.96;99434.13;7393850;19;20389;-65
2023/12/25 05:36:35;;;;;;;5.63;1.27;;;;;;;11.40;93.38;99433.72;7394133;19;20432;-65
2023/12/25 05:39:03;;;;;;;5.13;1.27;;;;;;;11.40;94.43;99413.28;7390646;19;20863;-66
2023/12/25 05:41:41;;;;;;;5.75;1.63;;;;;;;11.33;95.11;99420.50;7392411;19;20810;-66
2023/12/25 05:44:08;;;;;;;4.10;1.25;;;;;;;11.23;95.41;99442.16;7393039;19;20356;-68
2023/12/25 05:46:35;;;;;;;5.65;1.50;;;;;;;11.16;95.92;99396.25;7393263;19;20340;-68
2023/12/25 05:49:02;;;;;;;7.07;1.42;;;;;;;11.16;95.70;99422.81;7390501;19;20394;-68
2023/12/25 05:51:29;;;;;;;3.63;1.10;;;;;;;11.08;96.33;99427.53;7392802;19;20368;-68
2023/12/25 05:53:56;;;;;;;6.05;1.30;;;;;;;11.02;97.51;99424.66;7393098;19;20758;-69
2023/12/25 05:56:23;;;;;;;4.93;1.17;;;;;;;10.98;98.05;99436.72;7392072;19;20776;-69
2023/12/25 05:58:50;;;;;;;6.40;1.40;;;;;;;10.96;98.43;99469.81;7392635;19;20353;-70
2023/12/25 06:01:17;;;;;;;5.15;1.60;;;;;;;10.96;99.26;99454.69;7390826;19;20408;-70
2023/12/25 06:03:44;;;;;;;3.97;1.30;;;;;;;10.91;100.00;99459.81;7392924;19;20340;-69
2023/12/25 06:06:11;;;;;;;6.70;1.70;;;;;;;10.87;100.00;99441.88;7390656;19;20357;-69
2023/12/25 06:08:38;;;;;;;4.55;1.35;;;;;;;10.78;100.00;99442.09;7392097;19;20399;-70
2023/12/25 06:11:05;;;;;;;6.13;1.35;;;;;;;10.74;100.00;99445.38;7391091;19;20519;-70
2023/12/25 06:13:32;;;;;;;5.85;1.70;;;;;;;10.69;100.00;99474.31;7391943;19;20717;-69
2023/12/25 06:15:58;;;;;;;5.30;1.48;;;;;;;10.70;100.00;99468.81;7392637;19;20372;-69
2023/12/25 06:18:25;;;;;;;5.07;1.60;;;;;;;10.73;100.00;99472.91;7392701;19;20365;-68
2023/12/25 06:20:52;;;;;;;5.00;1.40;;;;;;;10.73;100.00;99456.97;7390822;19;20357;-68
2023/12/25 06:23:22;;;;;;;5.65;1.40;;;;;;;10.69;100.00;99459.25;7393662;19;20368;-68
2023/12/25 06:25:50;;;;;;;6.20;1.43;;;;;;;10.70;100.00;99470.66;7396775;19;20348;-68
2023/12/25 06:28:17;;;;;;;5.35;1.30;;;;;;;10.71;100.00;99469.63;7398708;19;20369;-68
2023/12/25 06:30:43;;;;;;;6.70;1.40;;;;;;;10.68;100.00;99470.88;7398622;19;20369;-68
2023/12/25 06:33:10;;;;;;;5.37;1.50;;;;;;;10.71;100.00;99478.44;7397771;19;21003;-67
2023/12/25 06:35:37;;;;;;;7.97;1.52;;;;;;;10.67;100.00;99460.44;7399387;19;20372;-67
2023/12/25 06:38:04;;;;;;;6.13;1.35;;;;;;;10.64;100.00;99467.00;7399050;19;20340;-67
2023/12/25 06:40:30;;;;;;;4.95;1.33;;;;;;;10.70;100.00;99470.66;7396158;19;20368;-67
2023/12/25 06:42:57;;;;;;;5.93;1.60;;;;;;;10.69;100.00;99476.97;7397425;19;20360;-68
2023/12/25 06:45:27;;;;;;;8.40;1.77;;;;;;;10.73;100.00;99488.81;7396734;19;20376;-68
2023/12/25 06:47:53;;;;;;;6.32;1.42;;;;;;;10.74;100.00;99482.50;7399411;19;20328;-67
2023/12/25 06:50:21;;;;;;;5.20;1.48;;;;;;;10.74;100.00;99475.34;7398415;19;20477;-67
2023/12/25 06:52:48;;;;;;;4.78;1.40;;;;;;;10.79;100.00;99482.69;7398080;19;20432;-67
2023/12/25 06:55:15;;;;;;;5.60;1.65;;;;;;;10.80;100.00;99487.78;7396720;19;20345;-67
2023/12/25 06:57:42;;;;;;;4.97;1.30;;;;;;;10.83;100.00;99486.56;7398435;19;20364;-67
2023/12/25 07:00:10;;;;;;;4.60;1.92;;;;;;;10.85;100.00;99491.66;7394344;19;20447;-67
2023/12/25 07:02:38;;;;;;;4.32;1.50;;;;;;;10.86;100.00;99511.84;7398636;19;20336;-67
2023/12/25 07:05:05;;;;;;;7.80;1.67;;;;;;;10.88;100.00;99497.38;7397820;19;20895;-67
2023/12/25 07:07:32;;;;;;;5.35;1.50;;;;;;;10.83;100.00;99507.78;7397459;19;20360;-67
2023/12/25 07:09:58;;;;;;;4.90;1.73;;;;;;;10.83;100.00;99515.75;7396973;19;20345;-67
2023/12/25 07:12:25;;;;;;;4.65;1.52;;;;;;;10.83;100.00;99518.41;7398134;19;20366;-67
2023/12/25 07:14:52;;;;;;;5.50;1.30;;;;;;;10.82;100.00;99527.38;7396784;19;20349;-67
2023/12/25 07:17:19;;;;;;;3.70;1.58;;;;;;;10.88;100.00;99520.44;7393539;19;20393;-67
2023/12/25 07:19:46;;;;;;;8.02;1.80;;;;;;;10.88;100.00;99541.66;7397040;19;20380;-66
2023/12/25 07:22:13;;;;;;;6.65;1.80;;;;;;;10.92;100.00;99543.72;7397766;19;20412;-66
2023/12/25 07:24:39;;;;;;;5.90;1.50;;;;;;;10.93;100.00;99555.94;7398240;19;20373;-66
2023/12/25 07:27:06;;;;;;;4.82;1.50;;;;;;;10.96;100.00;99544.91;7394869;19;20372;-67
2023/12/25 07:29:32;;;;;;;5.70;1.27;;;;;;;10.92;100.00;99558.78;7396116;19;21117;-69
2023/12/25 07:31:59;;;;;;;6.77;1.50;;;;;;;10.92;100.00;99572.91;7396627;19;20360;-68
2023/12/25 07:34:28;;;;;;;8.40;1.65;;;;;;;10.88;100.00;99563.72;7393965;19;20360;-69
2023/12/25 07:36:55;;;;;;;6.80;1.67;;;;;;;10.80;100.00;99571.88;7396532;19;20427;-68
2023/12/25 07:39:21;;;;;;;6.43;1.73;;;;;;;10.71;100.00;99576.56;7396320;19;20380;-68
2023/12/25 07:41:48;;;;;;;7.18;1.60;;;;;;;10.70;100.00;99571.47;7396938;19;20348;-68
2023/12/25 07:44:18;;;;;;;7.18;1.95;;;;;;;10.69;100.00;99554.72;7395714;19;20425;-69
2023/12/25 07:46:44;;;;;;;6.63;1.30;;;;;;;10.61;100.00;99573.50;7396734;19;20352;-68
2023/12/25 07:49:11;;;;;;;5.38;1.40;;;;;;;10.61;100.00;99544.31;7395712;19;20860;-68
2023/12/25 07:51:38;;;;;;;6.65;1.30;;;;;;;10.57;100.00;99546.56;7396462;19;20340;-68
2023/12/25 07:54:05;;;;;;;6.70;1.33;;;;;;;10.51;100.00;99579.19;7394934;19;20348;-68
2023/12/25 07:56:31;;;;;;;5.38;1.48;;;;;;;10.52;100.00;99575.53;7395602;19;20874;-68
2023/12/25 07:58:58;;;;;;;6.10;1.60;;;;;;;10.54;100.00;99589.41;7395735;19;20377;-68
2023/12/25 08:01:25;;;;;;;6.05;1.60;;;;;;;10.50;100.00;99588.16;7392374;19;20389;-68
2023/12/25 08:03:52;;;;;;;7.10;1.40;;;;;;;10.50;100.00;99601.44;7396190;19;20880;-68
2023/12/25 08:06:19;;;;;;;6.35;1.50;;;;;;;10.54;100.00;99605.31;7394681;19;20391;-68
2023/12/25 08:08:47;;;;;;;5.03;1.40;;;;;;;10.54;100.00;99609.78;7396397;19;20353;-68
2023/12/25 08:11:15;;;;;;;4.65;1.38;;;;;;;10.49;100.00;99602.44;7392975;19;20364;-68
2023/12/25 08:13:41;;;;;;;6.43;1.50;;;;;;;10.55;100.00;99596.31;7396814;19;20707;-68
2023/12/25 08:16:08;;;;;;;5.32;1.30;;;;;;;10.59;100.00;99596.75;7393942;19;20364;-67
2023/12/25 08:18:35;;;;;;;4.93;1.30;;;;;;;10.63;100.00;99615.72;7395129;19;20376;-68
2023/12/25 08:21:04;;;;;;;5.47;1.25;;;;;;;10.58;100.00;99617.16;7390668;19;20722;-67
2023/12/25 08:23:31;;;;;;;6.05;1.20;;;;;;;10.62;100.00;99644.06;7394491;19;20392;-67
2023/12/25 08:25:59;;;;;;;4.07;1.10;;;;;;;10.57;100.00;99636.72;7394996;19;20389;-67
2023/12/25 08:28:26;;;;;;;5.82;1.40;;;;;;;10.64;100.00;99633.25;7395821;19;20340;-68
2023/12/25 08:30:53;;;;;;;5.60;1.27;;;;;;;10.57;100.00;99615.50;7393137;19;20389;-67
2023/12/25 08:33:19;;;;;;;4.22;1.00;;;;;;;10.59;100.00;99629.38;7393633;19;20332;-67
2023/12/25 08:35:46;;;;;;;5.20;1.40;;;;;;;10.65;100.00;99611.00;7395270;19;20359;-67
2023/12/25 08:38:13;;;;;;;5.70;1.30;;;;;;;10.65;100.00;99626.94;7393483;19;20733;-67
2023/12/25 08:40:40;;;;;;;5.40;1.17;;;;;;;10.62;100.00;99636.09;7394343;19;20384;-67
2023/12/25 08:43:07;;;;;;;5.22;1.23;;;;;;;10.60;100.00;99617.75;7395127;19;20703;-66
2023/12/25 08:45:33;;;;;;;5.88;1.17;;;;;;;10.64;100.00;99630.63;7393919;19;20344;-67
2023/12/25 08:48:00;;;;;;;4.80;1.40;;;;;;;10.61;99.66;99622.03;7394362;19;20352;-67
2023/12/25 08:50:27;;;;;;;3.50;1.17;;;;;;;10.65;99.37;99632.22;7392409;19;20372;-67
2023/12/25 08:52:54;;;;;;;5.05;1.33;;;;;;;10.66;99.09;99632.03;7394059;19;20328;-67
2023/12/25 08:55:21;;;;;;;5.10;1.35;;;;;;;10.66;98.72;99645.31;7392375;19;20424;-67
2023/12/25 08:57:47;;;;;;;5.40;1.45;;;;;;;10.75;98.88;99648.56;7394633;19;20382;-67
2023/12/25 09:00:15;;;;;;;4.88;1.40;;;;;;;10.77;98.27;99659.81;7393369;19;20373;-67
2023/12/25 09:02:43;;;;;;;7.72;1.27;;;;;;;10.80;97.72;99662.06;7394984;19;20381;-66
2023/12/25 09:05:09;;;;;;;5.60;1.50;;;;;;;10.85;97.76;99651.66;7391347;19;20356;-67
2023/12/25 09:07:36;;;;;;;6.80;1.55;;;;;;;10.90;97.48;99651.03;7393015;19;20344;-66
2023/12/25 09:10:06;;;;;;;3.70;1.10;;;;;;;10.89;96.74;99687.38;7393670;19;20365;-66
2023/12/25 09:12:33;;;;;;;5.93;1.30;;;;;;;10.93;96.19;99664.72;7392908;19;20345;-66
2023/12/25 09:15:01;;;;;;;5.97;1.55;;;;;;;10.94;95.61;99673.50;7392859;19;20360;-66
2023/12/25 09:17:28;;;;;;;5.75;1.67;;;;;;;11.04;95.83;99683.72;7393349;19;20421;-66
2023/12/25 09:19:55;;;;;;;6.03;1.45;;;;;;;11.05;94.95;99664.13;7394087;19;20361;-66
2023/12/25 09:22:24;;;;;;;5.05;1.40;;;;;;;11.09;95.14;99670.66;7392319;19;20356;-66
2023/12/25 09:24:51;;;;;;;5.53;1.33;;;;;;;11.17;94.45;99691.69;7392428;19;20356;-66
2023/12/25 09:27:18;;;;;;;5.60;1.50;;;;;;;11.16;94.23;99692.72;7392291;19;20694;-66
2023/12/25 09:29:45;;;;;;;3.55;1.00;;;;;;;11.17;93.57;99694.34;7392745;19;20376;-66
2023/12/25 09:32:11;;;;;;;5.20;1.45;;;;;;;11.26;93.72;99684.34;7392330;19;20344;-66
2023/12/25 09:34:38;;;;;;;6.20;1.30;;;;;;;11.25;93.12;99691.50;7394033;19;20356;-66
2023/12/25 09:37:21;;;;;;;4.57;1.40;;;;;;;11.28;92.75;99696.38;7393357;19;20344;-66
2023/12/25 09:39:48;;;;;;;4.78;1.30;;;;;;;11.32;92.71;99702.94;7392559;19;20924;-66
2023/12/25 09:42:15;;;;;;;5.90;1.65;;;;;;;11.35;92.32;99689.25;7392842;19;20348;-66
2023/12/25 09:44:42;;;;;;;5.93;1.58;;;;;;;11.35;92.01;99707.84;7391448;19;20385;-66
2023/12/25 09:47:09;;;;;;;5.20;1.30;;;;;;;11.35;92.00;99699.88;7392465;19;20376;-66
2023/12/25 09:49:38;;;;;;;7.32;1.50;;;;;;;11.37;91.89;99711.13;7391939;19;20901;-65
2023/12/25 09:52:05;;;;;;;8.48;1.88;;;;;;;11.41;91.82;99715.00;7393077;19;20349;-66
2023/12/25 09:54:33;;;;;;;5.47;1.30;;;;;;;11.48;91.62;99698.25;7392114;19;20352;-65
2023/12/25 09:57:02;;;;;;;5.03;1.45;;;;;;;11.50;90.96;99701.53;7390905;19;20377;-65
2023/12/25 09:59:30;;;;;;;6.88;1.70;;;;;;;11.60;90.30;99709.88;7392812;19;20879;-65
2023/12/25 10:02:05;;;;;;;6.15;1.45;;;;;;;11.64;90.70;99711.09;7388954;19;20389;-66
2023/12/25 10:04:36;;;;;;;7.43;1.70;;;;;;;11.67;90.16;99700.06;7391911;19;20743;-65
2023/12/25 10:07:05;;;;;;;4.60;1.13;;;;;;;11.74;89.16;99716.81;7390737;19;20429;-65
2023/12/25 10:09:33;;;;;;;6.72;1.40;;;;;;;11.84;88.83;99705.75;7391813;19;20364;-65
2023/12/25 10:12:00;;;;;;;3.80;1.10;;;;;;;11.96;88.96;99701.44;7391987;19;20389;-65
2023/12/25 10:14:29;;;;;;;6.93;1.50;;;;;;;12.02;88.40;99705.13;7391898;19;20344;-65
2023/12/25 10:16:58;;;;;;;6.03;1.23;;;;;;;12.01;87.82;99714.13;7391826;19;20353;-65
2023/12/25 10:19:25;;;;;;;6.10;1.40;;;;;;;12.08;88.90;99720.25;7391030;19;20360;-65
2023/12/25 10:21:53;;;;;;;5.78;1.27;;;;;;;12.10;86.79;99712.88;7389803;19;20368;-65
2023/12/25 10:24:29;;;;;;;4.20;1.25;;;;;;;12.20;87.30;99721.25;7390891;19;20400;-65
2023/12/25 10:27:02;;;;;;;3.58;1.10;;;;;;;12.09;86.83;99724.56;7391226;19;20871;-65
2023/12/25 10:29:35;;;;;;;4.95;1.20;;;;;;;12.13;86.96;99728.41;7391907;19;20714;-65
2023/12/25 10:32:18;;;;;;;4.15;1.30;;;;;;;12.11;86.63;99721.66;7392225;19;20360;-65
2023/12/25 10:34:45;;;;;;;4.32;1.20;;;;;;;12.17;87.16;99708.34;7391321;19;20457;-65
2023/12/25 10:37:15;;;;;;;4.45;1.17;;;;;;;12.17;86.93;99710.19;7390869;19;20424;-65
2023/12/25 10:39:41;;;;;;;4.50;1.27;;;;;;;12.20;86.65;99710.59;7392156;19;20385;-64
2023/12/25 10:42:10;;;;;;;4.70;1.35;;;;;;;12.21;86.26;99700.78;7386975;19;20360;-65
2023/12/25 10:44:39;;;;;;;6.68;1.60;;;;;;;12.26;86.40;99708.13;7390743;19;20854;-65
2023/12/25 10:47:10;;;;;;;3.63;1.17;;;;;;;12.31;86.22;99697.69;7391808;19;20356;-65
2023/12/25 10:49:39;;;;;;;5.40;1.37;;;;;;;12.40;86.37;99688.44;7391807;19;20366;-64
2023/12/25 10:52:07;;;;;;;6.20;1.30;;;;;;;12.36;85.05;99709.31;7390746;19;20875;-64
2023/12/25 10:54:36;;;;;;;5.30;1.27;;;;;;;12.39;85.95;99678.84;7390695;19;20373;-64
2023/12/25 10:57:07;;;;;;;5.32;1.20;;;;;;;12.34;84.75;99700.72;7389782;19;20867;-64
2023/12/25 10:59:38;;;;;;;5.72;1.38;;;;;;;12.29;83.97;99718.34;7391807;19;20365;-65
2023/12/25 11:02:10;;;;;;;3.70;1.15;;;;;;;12.33;83.37;99700.94;7386286;19;20360;-65
2023/12/25 11:04:38;;;;;;;3.05;0.93;;;;;;;12.34;82.70;99715.88;7390949;19;20360;-64
2023/12/25 11:07:04;;;;;;;4.70;0.90;;;;;;;12.33;80.79;99714.25;7391198;19;20408;-64
2023/12/25 11:09:31;;;;;;;2.97;0.95;;;;;;;12.27;80.45;99739.84;7393175;19;20340;-65
2023/12/25 11:11:59;;;;;;;5.22;1.02;;;;;;;12.33;80.81;99712.41;7396276;19;20392;-64
2023/12/25 11:14:28;;;;;;;4.90;1.10;;;;;;;12.42;80.64;99675.75;7396411;19;20698;-64
2023/12/25 11:16:55;;;;;;;3.00;1.00;;;;;;;12.37;81.05;99679.03;7394596;19;20352;-64
2023/12/25 11:19:22;;;;;;;4.22;0.93;;;;;;;12.46;80.36;99695.56;7398303;19;20356;-64
2023/12/25 11:21:49;;;;;;;4.00;1.10;;;;;;;12.44;79.87;99700.28;7394558;19;20360;-65
2023/12/25 11:24:15;;;;;;;3.43;1.00;;;;;;;12.51;78.70;99711.69;7397452;19;20349;-64
2023/12/25 11:26:43;;;;;;;3.95;1.05;;;;;;;12.56;80.63;99725.19;7397096;19;20360;-64
2023/12/25 11:29:10;;;;;;;4.55;1.10;;;;;;;12.59;79.97;99714.13;7397689;19;20367;-64
2023/12/25 11:31:42;;;;;;;4.25;1.20;;;;;;;12.73;79.64;99706.06;7396362;19;20373;-64